Time;durP1;ratioP1;P1;durP2;ratioP2;P2;SDS_P1;SDS_P2;PMS_P1;PMS_P2;Temp;Humidity;BMP_temperature;BMP_pressure;BME280_temperature;BME280_humidity;BME280_pressure;Samples;Min_cycle;Max_cycle;Signal;HPM_P1;HPM_P2
2023/04/21 00:01:52;;;;;;;43.75;17.40;;;;;;;9.83;nan;99542.44;5044239;28;20114;-79
2023/04/21 00:04:36;;;;;;;47.10;19.77;;;;;;;9.36;nan;99546.88;5041206;28;20164;-79
2023/04/21 00:07:21;;;;;;;49.53;20.80;;;;;;;9.33;nan;99536.75;5050697;28;20052;-79
2023/04/21 00:10:07;;;;;;;47.97;20.98;;;;;;;9.23;nan;99526.50;5045365;28;20040;-81
2023/04/21 00:12:51;;;;;;;56.65;22.63;;;;;;;9.14;nan;99528.34;5047444;28;20051;-81
2023/04/21 00:15:35;;;;;;;53.65;21.08;;;;;;;9.16;nan;99515.91;5044010;28;20557;-81
2023/04/21 00:18:19;;;;;;;52.15;21.63;;;;;;;9.36;nan;99518.06;5041644;28;20484;-79
2023/04/21 00:21:04;;;;;;;49.05;19.48;;;;;;;9.40;nan;99506.25;5042429;28;20036;-79
2023/04/21 00:23:48;;;;;;;54.05;21.05;;;;;;;9.21;nan;99508.34;5039721;28;20503;-77
2023/04/21 00:26:33;;;;;;;51.67;22.80;;;;;;;9.16;nan;99505.44;5042118;28;20044;-78
2023/04/21 00:29:17;;;;;;;56.88;24.13;;;;;;;9.31;nan;99502.06;5045385;28;20523;-78
2023/04/21 00:32:02;;;;;;;56.83;24.75;;;;;;;9.56;nan;99493.03;5047426;28;20035;-78
2023/04/21 00:34:46;;;;;;;70.35;25.80;;;;;;;9.23;nan;99495.88;5044384;28;20036;-77
2023/04/21 00:37:30;;;;;;;69.13;25.98;;;;;;;9.41;nan;99497.38;5039483;28;20040;-78
2023/04/21 00:40:15;;;;;;;64.07;24.38;;;;;;;9.50;nan;99498.16;5043754;28;20137;-79
2023/04/21 00:42:59;;;;;;;62.53;24.67;;;;;;;9.63;nan;99505.41;5038819;28;20055;-79
2023/04/21 00:45:47;;;;;;;54.60;24.70;;;;;;;9.52;nan;99489.13;5042475;28;20454;-80
2023/04/21 00:48:30;;;;;;;68.55;26.80;;;;;;;9.40;nan;99499.22;5043145;28;20051;-79
2023/04/21 00:51:15;;;;;;;64.63;24.70;;;;;;;9.11;nan;99492.84;5037274;28;20044;-79
2023/04/21 00:54:01;;;;;;;65.22;24.95;;;;;;;9.44;nan;99502.31;5046238;28;20087;-80
2023/04/21 00:56:45;;;;;;;63.75;25.52;;;;;;;13.53;nan;99487.66;5044964;28;20514;-80
2023/04/21 00:59:29;;;;;;;70.65;27.35;;;;;;;15.94;nan;99478.06;5041712;28;20103;-80
2023/04/21 01:02:15;;;;;;;62.45;26.17;;;;;;;14.43;nan;99486.31;5039318;28;20451;-80
2023/04/21 01:04:59;;;;;;;64.18;27.20;;;;;;;13.19;nan;99480.72;5042499;28;20068;-80
2023/04/21 01:07:44;;;;;;;61.03;24.38;;;;;;;13.86;nan;99491.31;5042140;28;20176;-79
2023/04/21 01:10:28;;;;;;;58.85;26.17;;;;;;;13.42;nan;99490.91;5045277;28;20174;-80
2023/04/21 01:13:12;;;;;;;70.25;26.08;;;;;;;13.21;nan;99487.44;5042290;28;20083;-79
2023/04/21 01:15:56;;;;;;;55.75;25.00;;;;;;;13.39;nan;99501.84;5043865;28;20414;-79
2023/04/21 01:18:40;;;;;;;58.85;27.17;;;;;;;13.54;nan;99494.56;5044154;28;20447;-79
2023/04/21 01:21:25;;;;;;;62.42;24.48;;;;;;;13.80;nan;99495.59;5041634;28;20036;-78
2023/04/21 01:24:10;;;;;;;58.38;27.75;;;;;;;13.31;nan;99473.84;5039537;28;20052;-78
2023/04/21 01:26:54;;;;;;;57.85;24.88;;;;;;;13.91;nan;99490.69;5039474;28;20045;-78
2023/04/21 01:29:41;;;;;;;65.68;26.75;;;;;;;13.21;nan;99483.97;5040484;28;20400;-79
2023/04/21 01:32:28;;;;;;;57.17;27.20;;;;;;;13.46;nan;99475.50;5044681;28;20047;-79
2023/04/21 01:35:12;;;;;;;53.53;26.42;;;;;;;13.27;nan;99481.34;5048701;28;20051;-79
2023/04/21 01:37:56;;;;;;;68.93;28.77;;;;;;;13.48;nan;99458.47;5042267;28;20402;-79
2023/04/21 01:40:41;;;;;;;54.38;26.73;;;;;;;13.33;nan;99452.53;5038096;28;20506;-79
2023/04/21 01:43:25;;;;;;;57.58;24.33;;;;;;;13.59;nan;99457.03;5039018;28;20086;-79
2023/04/21 01:46:10;;;;;;;58.15;25.13;;;;;;;13.76;nan;99451.34;5043386;28;20087;-78
2023/04/21 01:48:54;;;;;;;66.78;26.77;;;;;;;13.24;nan;99458.03;5040932;28;20047;-79
2023/04/21 01:51:38;;;;;;;54.30;27.20;;;;;;;13.32;nan;99464.94;5043470;28;20418;-79
2023/04/21 01:54:22;;;;;;;49.85;25.20;;;;;;;13.49;nan;99457.44;5036487;28;20048;-78
2023/04/21 01:57:06;;;;;;;63.65;27.85;;;;;;;13.43;nan;99455.63;5044191;28;20035;-79
2023/04/21 01:59:51;;;;;;;67.95;26.58;;;;;;;13.39;nan;99449.13;5039775;28;20498;-79
2023/04/21 02:02:35;;;;;;;54.97;25.35;;;;;;;13.81;nan;99446.25;5033487;28;20095;-79
2023/04/21 02:05:19;;;;;;;63.20;26.25;;;;;;;13.68;nan;99428.63;5042959;28;20040;-80
2023/04/21 02:08:03;;;;;;;53.28;26.02;;;;;;;13.57;nan;99424.78;5036486;28;20049;-79
2023/04/21 02:10:48;;;;;;;59.92;27.98;;;;;;;13.77;nan;99416.03;5039193;28;20068;-79
2023/04/21 02:13:32;;;;;;;56.72;26.77;;;;;;;14.01;nan;99409.28;5039586;28;20080;-80
2023/04/21 02:16:16;;;;;;;62.83;28.50;;;;;;;13.92;nan;99403.41;5046238;28;20052;-80
2023/04/21 02:19:00;;;;;;;67.78;29.45;;;;;;;13.54;nan;99404.09;5050799;28;20036;-80
2023/04/21 02:21:44;;;;;;;75.05;30.13;;;;;;;13.89;nan;99395.91;5043757;28;20185;-80
2023/04/21 02:24:28;;;;;;;74.07;31.23;;;;;;;13.38;nan;99400.81;5040454;28;20056;-80
2023/04/21 02:27:12;;;;;;;77.13;31.92;;;;;;;14.02;nan;99392.41;5039823;28;20474;-80
2023/04/21 02:29:56;;;;;;;72.75;31.83;;;;;;;13.91;nan;99382.50;5039471;28;20059;-79
2023/04/21 02:32:40;;;;;;;70.60;30.05;;;;;;;12.87;nan;99389.06;5039875;28;20481;-80
2023/04/21 02:35:24;;;;;;;70.20;28.92;;;;;;;12.70;nan;99378.91;5040052;28;20066;-79
2023/04/21 02:38:09;;;;;;;65.50;26.65;;;;;;;13.29;nan;99370.44;5043051;28;20047;-79
2023/04/21 02:40:53;;;;;;;72.90;32.92;;;;;;;13.11;nan;99352.56;5040145;28;20056;-78
2023/04/21 02:43:37;;;;;;;78.30;35.50;;;;;;;13.84;nan;99351.69;5037776;28;20158;-80
2023/04/21 02:46:21;;;;;;;72.30;30.67;;;;;;;12.79;nan;99355.00;5041469;28;20051;-79
2023/04/21 02:49:05;;;;;;;76.90;30.75;;;;;;;12.88;nan;99348.53;5043412;28;20048;-79
2023/04/21 02:51:49;;;;;;;68.05;31.83;;;;;;;12.19;nan;99350.44;5045829;28;20167;-80
2023/04/21 02:54:33;;;;;;;66.70;31.88;;;;;;;12.73;nan;99343.44;5041444;28;20071;-79
2023/04/21 02:57:17;;;;;;;90.65;31.58;;;;;;;12.66;nan;99346.06;5040002;28;20068;-79
2023/04/21 03:00:03;;;;;;;70.13;30.50;;;;;;;12.28;nan;99349.22;5039858;28;20091;-79
2023/04/21 03:02:47;;;;;;;73.25;29.27;;;;;;;13.20;nan;99361.91;5039689;28;20072;-80
2023/04/21 03:05:31;;;;;;;69.85;28.40;;;;;;;12.90;nan;99345.69;5039833;28;20403;-79
2023/04/21 03:08:15;;;;;;;71.10;30.25;;;;;;;12.91;nan;99347.31;5042802;28;20049;-79
2023/04/21 03:10:59;;;;;;;63.80;27.65;;;;;;;12.96;nan;99335.13;5041613;28;20068;-79
2023/04/21 03:13:43;;;;;;;75.53;29.42;;;;;;;12.46;nan;99337.31;5038880;28;20450;-79
2023/04/21 03:16:28;;;;;;;77.93;28.02;;;;;;;12.06;nan;99336.19;5043668;28;20091;-80
2023/04/21 03:19:12;;;;;;;65.32;25.63;;;;;;;12.79;nan;99336.56;5041594;28;20132;-79
2023/04/21 03:21:56;;;;;;;65.97;25.15;;;;;;;12.79;nan;99320.78;5038672;28;20106;-80
2023/04/21 03:24:40;;;;;;;63.45;25.92;;;;;;;12.24;nan;99319.84;5034003;28;20525;-79
2023/04/21 03:27:24;;;;;;;55.15;23.40;;;;;;;12.58;nan;99306.78;5035260;28;20053;-79
2023/04/21 03:30:08;;;;;;;65.10;23.80;;;;;;;12.25;nan;99324.09;5039660;28;20609;-78
2023/04/21 03:32:54;;;;;;;61.42;24.80;;;;;;;12.61;nan;99322.16;5046058;28;20106;-78
2023/04/21 03:35:38;;;;;;;65.82;26.02;;;;;;;12.51;nan;99303.31;5040818;28;20045;-79
2023/04/21 03:38:22;;;;;;;57.08;25.73;;;;;;;12.53;nan;99298.66;5041711;28;20562;-78
2023/04/21 03:41:06;;;;;;;63.65;26.02;;;;;;;12.53;nan;99296.84;5040382;28;20521;-79
2023/04/21 03:43:51;;;;;;;71.72;27.75;;;;;;;12.03;nan;99294.50;5033734;28;20522;-79
2023/04/21 03:46:35;;;;;;;71.03;30.23;;;;;;;12.43;nan;99284.06;5038602;28;20503;-80
2023/04/21 03:49:19;;;;;;;76.43;28.98;;;;;;;12.54;nan;99279.19;5039799;28;20099;-80
2023/04/21 03:52:04;;;;;;;76.47;30.40;;;;;;;12.62;nan;99279.03;5035037;28;20118;-79
2023/04/21 03:54:48;;;;;;;77.25;30.45;;;;;;;12.54;nan;99269.50;5040273;28;20083;-79
2023/04/21 03:57:32;;;;;;;70.70;30.35;;;;;;;13.10;nan;99261.34;5038890;28;20048;-79
2023/04/21 04:00:16;;;;;;;66.97;32.05;;;;;;;12.48;nan;99236.09;5036846;28;20052;-79
2023/04/21 04:03:00;;;;;;;69.15;31.15;;;;;;;12.91;nan;99226.91;5043815;28;20055;-78
2023/04/21 04:05:44;;;;;;;80.68;31.48;;;;;;;12.26;nan;99232.81;5039077;28;20045;-80
2023/04/21 04:08:29;;;;;;;84.43;31.75;;;;;;;12.65;nan;99223.31;5038415;28;20052;-79
2023/04/21 04:11:12;;;;;;;78.53;33.65;;;;;;;12.58;nan;99230.41;5037440;28;20048;-78
2023/04/21 04:13:57;;;;;;;80.90;31.33;;;;;;;12.57;nan;99220.88;5044700;28;20458;-78
2023/04/21 04:16:41;;;;;;;84.22;31.50;;;;;;;12.62;nan;99215.00;5036148;28;20129;-78
2023/04/21 04:19:33;;;;;;;80.88;31.90;;;;;;;12.69;nan;99203.44;5039086;28;20053;-78
2023/04/21 04:22:17;;;;;;;87.57;31.08;;;;;;;12.81;nan;99208.09;5040314;28;20403;-79
2023/04/21 04:25:01;;;;;;;79.20;32.10;;;;;;;13.04;nan;99185.75;5037323;28;20045;-79
2023/04/21 04:27:45;;;;;;;75.55;30.40;;;;;;;12.80;nan;99190.69;5041942;28;20087;-78
2023/04/21 04:30:31;;;;;;;92.82;31.55;;;;;;;12.81;nan;99158.84;5037420;28;20111;-80
2023/04/21 04:33:15;;;;;;;77.30;30.08;;;;;;;12.37;nan;99162.97;5037760;28;20486;-79
2023/04/21 04:35:59;;;;;;;73.57;30.40;;;;;;;12.46;nan;99151.19;5041978;28;20056;-79
2023/04/21 04:38:44;;;;;;;64.90;28.58;;;;;;;12.39;nan;99153.88;5040962;28;20502;-79
2023/04/21 04:41:29;;;;;;;65.50;26.88;;;;;;;12.60;nan;99145.94;5040035;28;20537;-79
2023/04/21 04:44:16;;;;;;;80.43;28.83;;;;;;;12.49;nan;99161.34;5043893;28;20094;-79
2023/04/21 04:47:00;;;;;;;69.70;28.65;;;;;;;12.30;nan;99136.66;5043747;28;20052;-80
2023/04/21 04:49:43;;;;;;;79.13;28.27;;;;;;;12.62;nan;99144.72;5041161;28;20518;-81
2023/04/21 04:52:28;;;;;;;59.95;26.63;;;;;;;12.84;nan;99131.31;5042470;28;20107;-80
2023/04/21 04:55:13;;;;;;;75.13;28.30;;;;;;;12.40;nan;99134.44;5036814;28;20040;-81
2023/04/21 04:57:56;;;;;;;76.15;29.27;;;;;;;12.61;nan;99137.84;5048183;28;20040;-80
2023/04/21 05:00:40;;;;;;;72.60;27.98;;;;;;;12.40;nan;99133.59;5043267;28;20044;-80
2023/04/21 05:03:25;;;;;;;83.43;28.23;;;;;;;12.71;nan;99137.41;5045330;28;20037;-80
2023/04/21 05:06:09;;;;;;;68.28;25.63;;;;;;;12.97;nan;99130.44;5044922;28;20118;-81
2023/04/21 05:08:53;;;;;;;74.32;28.00;;;;;;;13.14;nan;99125.50;5039779;28;20100;-81
2023/04/21 05:11:37;;;;;;;76.95;29.45;;;;;;;13.43;nan;99118.91;5045005;28;20506;-81
2023/04/21 05:14:21;;;;;;;75.72;27.17;;;;;;;12.54;nan;99127.31;5043732;28;20056;-80
2023/04/21 05:17:05;;;;;;;69.03;28.63;;;;;;;12.76;nan;99110.44;5041133;28;20115;-80
2023/04/21 05:19:49;;;;;;;72.63;26.35;;;;;;;13.17;nan;99111.13;5045363;28;20043;-81
2023/04/21 05:22:37;;;;;;;81.10;27.65;;;;;;;12.35;nan;99120.25;5039630;28;20044;-80
2023/04/21 05:25:21;;;;;;;67.85;25.58;;;;;;;12.35;nan;99118.41;5043000;28;20043;-80
2023/04/21 05:28:05;;;;;;;71.65;26.55;;;;;;;12.77;nan;99114.69;5041711;28;20125;-79
2023/04/21 05:30:49;;;;;;;64.18;24.55;;;;;;;12.67;nan;99120.38;5045324;28;20044;-80
2023/04/21 05:33:33;;;;;;;77.90;26.10;;;;;;;12.66;nan;99129.31;5042680;28;20066;-79
2023/04/21 05:36:19;;;;;;;62.80;25.58;;;;;;;12.22;nan;99116.59;5045179;28;20040;-80
2023/04/21 05:39:03;;;;;;;61.58;24.65;;;;;;;12.66;nan;99113.50;5037563;28;20052;-82
2023/04/21 05:41:47;;;;;;;69.85;25.52;;;;;;;12.80;nan;99115.09;5038180;28;20083;-79
2023/04/21 05:44:31;;;;;;;75.93;25.77;;;;;;;12.72;nan;99102.16;5038794;28;20044;-79
2023/04/21 05:47:15;;;;;;;53.10;23.33;;;;;;;12.98;nan;99111.81;5039603;28;20117;-78
2023/04/21 05:49:59;;;;;;;69.85;26.25;;;;;;;12.72;nan;99104.78;5038570;28;20402;-79
2023/04/21 05:52:43;;;;;;;62.47;24.33;;;;;;;13.55;nan;99107.72;5038174;28;20091;-79
2023/04/21 05:55:27;;;;;;;72.10;23.05;;;;;;;13.35;nan;99115.69;5041646;28;20196;-80
2023/04/21 05:58:11;;;;;;;77.07;24.67;;;;;;;12.64;nan;99105.81;5041127;28;20040;-81
2023/04/21 06:00:55;;;;;;;70.05;25.38;;;;;;;12.63;nan;99106.00;5040760;28;20124;-81
2023/04/21 06:03:39;;;;;;;64.00;25.77;;;;;;;13.20;nan;99100.97;5053897;28;20056;-83
2023/04/21 06:06:25;;;;;;;72.72;26.70;;;;;;;12.63;nan;99098.94;5048960;28;20045;-85
2023/04/21 06:09:09;;;;;;;77.03;28.23;;;;;;;13.47;nan;99097.44;5037010;28;20040;-85
2023/04/21 06:11:53;;;;;;;77.32;28.48;;;;;;;13.34;nan;99098.25;5039957;28;20099;-86
2023/04/21 06:14:37;;;;;;;56.25;25.33;;;;;;;13.17;nan;99097.94;5051771;28;20103;-82
2023/04/21 06:17:21;;;;;;;63.10;25.50;;;;;;;12.71;nan;99080.28;5054783;28;20134;-88
2023/04/21 06:20:07;;;;;;;61.75;24.60;;;;;;;13.11;nan;99073.22;5052183;28;20044;-84
2023/04/21 06:22:51;;;;;;;58.33;25.77;;;;;;;12.86;nan;99060.78;5054831;28;20095;-86
2023/04/21 06:25:35;;;;;;;50.67;24.98;;;;;;;13.35;nan;99068.22;5054481;28;20047;-83
2023/04/21 06:28:19;;;;;;;59.65;23.58;;;;;;;13.16;nan;99052.31;5034177;28;20052;-85
2023/04/21 06:31:03;;;;;;;66.75;23.85;;;;;;;13.09;nan;99048.91;5037732;28;20048;-86
2023/04/21 06:33:48;;;;;;;60.08;24.00;;;;;;;13.48;nan;99036.53;5038198;28;20045;-88
2023/04/21 06:36:32;;;;;;;56.65;22.83;;;;;;;12.91;nan;99039.88;5035824;28;20045;-89
2023/04/21 06:39:16;;;;;;;67.07;23.75;;;;;;;14.03;nan;99026.38;5044363;28;20071;-85
2023/04/21 06:42:00;;;;;;;58.40;23.65;;;;;;;13.73;nan;99029.69;5038061;28;20124;-82
2023/04/21 06:44:44;;;;;;;63.58;23.60;;;;;;;13.46;nan;99021.94;5041823;28;20403;-85
2023/04/21 06:47:28;;;;;;;52.78;23.70;;;;;;;13.37;nan;99013.50;5045381;28;20056;-85
2023/04/21 06:50:12;;;;;;;57.17;22.30;;;;;;;13.20;nan;99003.44;5040622;28;20045;-86
2023/04/21 06:52:56;;;;;;;51.78;22.65;;;;;;;13.36;nan;99019.75;5041828;28;20048;-86
2023/04/21 06:55:48;;;;;;;58.08;23.33;;;;;;;13.10;nan;99019.72;5039177;28;20052;-85
2023/04/21 06:58:32;;;;;;;53.67;21.55;;;;;;;12.53;nan;99014.28;5039096;28;20040;-84
2023/04/21 07:01:16;;;;;;;55.15;22.85;;;;;;;12.98;nan;99011.69;5037628;28;20044;-77
2023/04/21 07:04:00;;;;;;;55.72;22.88;;;;;;;13.47;nan;99005.94;5031376;28;20558;-75
2023/04/21 07:06:45;;;;;;;52.97;23.50;;;;;;;12.60;nan;99004.56;5033321;28;20133;-75
2023/04/21 07:09:29;;;;;;;56.13;22.33;;;;;;;13.09;nan;99006.75;5036343;28;20133;-76
2023/04/21 07:12:14;;;;;;;46.25;21.40;;;;;;;13.64;nan;99006.19;5034641;28;20571;-77
2023/04/21 07:14:58;;;;;;;52.72;22.67;;;;;;;12.79;nan;98999.44;5035125;28;20459;-78
2023/04/21 07:17:42;;;;;;;47.58;20.85;;;;;;;12.87;nan;99014.97;5037336;28;20453;-76
2023/04/21 07:20:26;;;;;;;56.45;23.73;;;;;;;13.34;nan;99013.88;5034374;28;20387;-76
2023/04/21 07:23:10;;;;;;;55.25;21.92;;;;;;;13.38;nan;99009.84;5037190;28;20047;-76
2023/04/21 07:25:54;;;;;;;55.75;23.65;;;;;;;12.83;nan;98992.72;5033694;28;20043;-77
2023/04/21 07:28:41;;;;;;;48.97;21.42;;;;;;;13.44;nan;98972.09;5033319;28;20044;-77
2023/04/21 07:31:25;;;;;;;49.92;22.48;;;;;;;13.20;nan;98982.38;5031228;28;20044;-76
2023/04/21 07:34:10;;;;;;;55.70;22.58;;;;;;;13.38;nan;98989.53;5037269;28;20098;-77
2023/04/21 07:36:56;;;;;;;52.60;21.25;;;;;;;12.82;nan;98988.47;5036890;28;20454;-77
2023/04/21 07:39:40;;;;;;;47.90;22.10;;;;;;;13.77;nan;98951.72;5037571;28;20122;-77
2023/04/21 07:42:25;;;;;;;47.92;21.40;;;;;;;13.19;nan;98975.47;5037910;28;20048;-77
2023/04/21 07:45:10;;;;;;;49.95;20.45;;;;;;;14.22;nan;98961.22;5042102;28;20391;-77
2023/04/21 07:47:54;;;;;;;54.83;21.45;;;;;;;13.29;nan;98944.16;5040441;28;20056;-76
2023/04/21 07:50:38;;;;;;;54.20;22.38;;;;;;;13.39;nan;98953.44;5036085;28;20043;-76
2023/04/21 07:53:22;;;;;;;44.67;19.88;;;;;;;13.52;nan;98958.63;5033308;28;20080;-75
2023/04/21 07:56:06;;;;;;;38.78;20.20;;;;;;;13.72;nan;98947.09;5035635;28;20094;-76
2023/04/21 07:58:50;;;;;;;49.05;19.80;;;;;;;13.98;nan;98971.63;5041375;28;20061;-74
2023/04/21 08:01:34;;;;;;;52.97;21.00;;;;;;;13.61;nan;98953.09;5041166;28;20071;-79
2023/04/21 08:04:18;;;;;;;54.90;20.02;;;;;;;13.31;nan;98966.88;5042421;28;20451;-77
2023/04/21 08:07:02;;;;;;;44.67;18.38;;;;;;;13.25;nan;98956.16;5039763;28;20368;-78
2023/04/21 08:09:46;;;;;;;46.33;19.10;;;;;;;13.63;nan;98967.66;5043930;28;20108;-78
2023/04/21 08:12:30;;;;;;;48.85;19.27;;;;;;;13.24;nan;98951.91;5044292;28;20496;-78
2023/04/21 08:15:14;;;;;;;50.10;19.27;;;;;;;13.68;nan;98952.00;5039889;28;20159;-78
2023/04/21 08:17:58;;;;;;;44.92;19.67;;;;;;;13.06;nan;98959.75;5039713;28;20039;-78
2023/04/21 08:20:42;;;;;;;49.22;20.65;;;;;;;13.34;nan;98950.63;5044348;28;20419;-79
2023/04/21 08:23:28;;;;;;;52.83;20.60;;;;;;;13.64;nan;98950.00;5042727;28;20111;-76
2023/04/21 08:26:12;;;;;;;43.65;18.60;;;;;;;13.75;nan;98946.66;5035749;28;20513;-76
2023/04/21 08:28:56;;;;;;;44.42;19.88;;;;;;;13.59;nan;98952.50;5037081;28;20045;-76
2023/04/21 08:31:41;;;;;;;47.15;20.17;;;;;;;14.16;nan;98962.09;5038159;28;20052;-76
2023/04/21 08:34:25;;;;;;;42.85;21.05;;;;;;;13.91;nan;98950.56;5033232;28;20463;-76
2023/04/21 08:37:09;;;;;;;52.88;18.52;;;;;;;14.53;nan;98933.00;5046243;28;20394;-76
2023/04/21 08:39:53;;;;;;;40.80;20.38;;;;;;;13.59;nan;98937.47;5046457;28;20467;-76
2023/04/21 08:42:38;;;;;;;54.35;20.02;;;;;;;14.14;nan;98957.03;5047921;28;20565;-75
2023/04/21 08:45:22;;;;;;;40.05;18.48;;;;;;;14.30;nan;98942.44;5040167;28;20056;-76
2023/04/21 08:48:08;;;;;;;47.63;21.23;;;;;;;14.08;nan;98945.50;5044655;28;20518;-76
2023/04/21 08:50:52;;;;;;;52.17;21.20;;;;;;;14.42;nan;98950.41;5041482;28;20079;-75
2023/04/21 08:53:37;;;;;;;51.42;18.63;;;;;;;14.14;nan;98949.91;5040792;28;20111;-76
2023/04/21 08:56:25;;;;;;;48.92;20.55;;;;;;;14.11;nan;98957.47;5041567;28;20043;-76
2023/04/21 08:59:09;;;;;;;51.05;22.17;;;;;;;14.18;nan;98949.50;5037947;28;20163;-76
2023/04/21 09:02:14;;;;;;;59.67;23.02;;;;;;;14.16;nan;98946.28;5035607;28;20083;-75
2023/04/21 09:04:58;;;;;;;41.83;21.73;;;;;;;14.17;nan;98947.88;5038464;28;20529;-76
2023/04/21 09:07:42;;;;;;;57.17;24.67;;;;;;;13.78;nan;98955.97;5038987;28;20518;-85
2023/04/21 09:10:27;;;;;;;50.55;21.83;;;;;;;14.78;nan;98942.69;5037281;28;20123;-79
2023/04/21 09:13:11;;;;;;;53.15;23.55;;;;;;;14.31;nan;98951.16;5040944;28;20093;-81
2023/04/21 09:15:56;;;;;;;70.10;29.83;;;;;;;14.46;nan;98941.03;5035995;28;20064;-83
2023/04/21 09:18:43;;;;;;;59.20;28.60;;;;;;;14.37;nan;98931.78;5037287;28;20035;-76
2023/04/21 09:21:27;;;;;;;68.00;31.90;;;;;;;14.30;nan;98937.16;5024243;28;20467;-81
2023/04/21 09:24:12;;;;;;;83.53;32.55;;;;;;;14.76;nan;98942.13;5036937;28;20064;-80
2023/04/21 09:26:56;;;;;;;62.67;32.58;;;;;;;14.80;nan;98927.41;5034844;28;20090;-77
2023/04/21 09:29:46;;;;;;;77.50;36.75;;;;;;;14.68;nan;98932.63;5035813;28;20468;-77
2023/04/21 09:32:36;;;;;;;85.40;39.13;;;;;;;14.74;nan;98920.38;5036941;28;20048;-77
2023/04/21 09:35:20;;;;;;;77.35;39.50;;;;;;;14.62;nan;98922.94;5042387;28;20051;-76
2023/04/21 09:38:10;;;;;;;86.43;42.50;;;;;;;14.69;nan;98934.25;5040182;28;20036;-76
2023/04/21 09:40:58;;;;;;;86.55;42.55;;;;;;;14.41;nan;98933.78;5046433;28;20048;-81
2023/04/21 09:43:43;;;;;;;88.60;43.72;;;;;;;14.35;nan;98929.38;5044152;28;20517;-83
2023/04/21 09:46:28;;;;;;;103.15;47.30;;;;;;;14.05;nan;98934.59;5043055;28;20103;-84
2023/04/21 09:49:16;;;;;;;96.10;46.42;;;;;;;14.74;nan;98923.81;5052884;28;20490;-82
2023/04/21 09:52:01;;;;;;;103.53;51.80;;;;;;;14.51;nan;98929.78;5047635;28;20092;-83
2023/04/21 09:54:51;;;;;;;107.20;52.85;;;;;;;14.32;nan;98935.09;5048673;28;20040;-83
2023/04/21 09:57:38;;;;;;;117.50;58.63;;;;;;;14.62;nan;98944.88;5039200;28;20403;-82
2023/04/21 10:00:27;;;;;;;119.55;56.03;;;;;;;14.61;nan;98943.28;5048823;28;20047;-82
2023/04/21 10:03:13;;;;;;;122.32;57.33;;;;;;;14.69;nan;98935.03;5048261;28;20035;-83
2023/04/21 10:05:57;;;;;;;123.90;55.42;;;;;;;14.62;nan;98942.25;5051351;28;20040;-81
2023/04/21 10:08:43;;;;;;;119.55;57.95;;;;;;;14.34;nan;98948.09;5036607;28;20056;-80
2023/04/21 10:11:27;;;;;;;112.93;56.20;;;;;;;14.23;nan;98942.50;5037516;28;20040;-81
2023/04/21 10:14:12;;;;;;;131.93;58.78;;;;;;;14.52;nan;98948.06;5036012;28;20044;-81
2023/04/21 10:17:02;;;;;;;121.68;57.25;;;;;;;14.72;nan;98949.66;5038873;28;20482;-80
2023/04/21 10:19:50;;;;;;;117.63;52.53;;;;;;;13.87;nan;98941.50;5042116;28;20451;-81
2023/04/21 10:22:37;;;;;;;118.35;51.95;;;;;;;14.46;nan;98946.31;5035095;28;20383;-81
2023/04/21 10:25:21;;;;;;;111.60;51.58;;;;;;;14.84;nan;98947.06;5040460;28;20098;-81
2023/04/21 10:28:05;;;;;;;108.28;50.45;;;;;;;14.92;nan;98949.38;5036876;28;20040;-81
2023/04/21 10:30:50;;;;;;;109.57;48.50;;;;;;;14.66;nan;98950.53;5037415;28;20044;-81
2023/04/21 10:33:34;;;;;;;111.43;49.63;;;;;;;15.00;nan;98942.97;5034624;28;20107;-81
2023/04/21 10:36:26;;;;;;;125.68;49.08;;;;;;;14.03;nan;98948.00;5036787;28;20063;-81
2023/04/21 10:39:24;;;;;;;113.93;48.78;;;;;;;14.41;nan;98939.06;5036760;28;20067;-81
2023/04/21 10:42:11;;;;;;;109.35;48.40;;;;;;;14.93;nan;98937.78;5035959;28;20132;-81
2023/04/21 10:44:56;;;;;;;101.05;48.08;;;;;;;15.02;nan;98935.63;5035564;28;20056;-81
2023/04/21 10:47:43;;;;;;;109.97;48.58;;;;;;;14.91;nan;98939.06;5037753;28;20076;-82
2023/04/21 10:50:29;;;;;;;110.18;49.00;;;;;;;15.18;nan;98934.19;5040631;28;20122;-82
2023/04/21 10:53:15;;;;;;;103.32;47.53;;;;;;;14.38;nan;98915.75;5039405;28;20166;-83
2023/04/21 10:56:00;;;;;;;101.78;47.83;;;;;;;15.17;nan;98924.63;5035152;28;20056;-84
2023/04/21 10:58:45;;;;;;;106.25;48.75;;;;;;;14.27;nan;98922.56;5041695;28;20067;-83
2023/04/21 11:01:30;;;;;;;119.15;46.80;;;;;;;14.39;nan;98935.84;5044406;28;20517;-83
2023/04/21 11:04:19;;;;;;;109.22;48.58;;;;;;;14.33;nan;98931.41;5034950;28;20138;-83
2023/04/21 11:07:15;;;;;;;110.47;48.55;;;;;;;14.26;nan;98925.44;5039933;28;20406;-83
2023/04/21 11:10:05;;;;;;;113.07;49.90;;;;;;;14.67;nan;98920.44;5034212;28;20043;-82
2023/04/21 11:12:49;;;;;;;116.38;53.35;;;;;;;14.80;nan;98917.63;5031120;28;20103;-81
2023/04/21 11:15:33;;;;;;;112.15;50.40;;;;;;;15.03;nan;98913.44;5032797;28;20221;-81
2023/04/21 11:18:17;;;;;;;108.18;50.25;;;;;;;14.79;nan;98918.66;5031962;28;21921;-82
2023/04/21 11:21:08;;;;;;;112.78;50.78;;;;;;;15.38;nan;98917.97;5032317;28;20577;-81
2023/04/21 11:23:54;;;;;;;110.65;51.95;;;;;;;14.16;nan;98917.22;5039215;28;20123;-81
2023/04/21 11:26:38;;;;;;;121.43;53.00;;;;;;;14.86;nan;98913.28;5035815;28;20517;-81
2023/04/21 11:29:23;;;;;;;117.40;51.58;;;;;;;14.80;nan;98901.00;5032749;28;20064;-81
2023/04/21 11:32:08;;;;;;;110.80;50.88;;;;;;;14.26;nan;98904.31;5034195;28;20079;-81
2023/04/21 11:34:53;;;;;;;112.53;53.30;;;;;;;14.98;nan;98906.22;5034367;28;20103;-80
2023/04/21 11:37:37;;;;;;;115.53;52.30;;;;;;;14.91;nan;98899.41;5039538;28;20091;-80
2023/04/21 11:40:22;;;;;;;113.25;52.10;;;;;;;14.53;nan;98903.94;5040863;28;20140;-81
2023/04/21 11:43:06;;;;;;;103.53;51.80;;;;;;;14.88;nan;98900.66;5039901;28;20060;-81
2023/04/21 11:45:51;;;;;;;116.78;52.53;;;;;;;15.30;nan;98894.53;5041482;28;20040;-80
2023/04/21 11:48:35;;;;;;;104.90;50.22;;;;;;;14.90;nan;98888.03;5032143;28;20553;-81
2023/04/21 11:51:19;;;;;;;105.97;49.88;;;;;;;15.09;nan;98885.28;5037131;28;20095;-80
2023/04/21 11:54:13;;;;;;;96.75;51.13;;;;;;;15.17;nan;98892.09;5035193;28;20506;-80
2023/04/21 11:56:57;;;;;;;112.47;47.45;;;;;;;14.88;nan;98889.28;5041268;28;20076;-80
2023/04/21 11:59:44;;;;;;;104.97;47.88;;;;;;;14.90;nan;98892.50;5042815;28;20091;-80
2023/04/21 12:02:30;;;;;;;100.32;48.25;;;;;;;14.38;nan;98886.69;5039801;28;20402;-80
2023/04/21 12:05:14;;;;;;;98.82;47.05;;;;;;;15.22;nan;98890.38;5036593;28;20041;-81
2023/04/21 12:07:58;;;;;;;94.57;49.50;;;;;;;14.68;nan;98885.88;5034536;28;20509;-81
2023/04/21 12:10:48;;;;;;;103.65;48.03;;;;;;;15.40;nan;98893.97;5035682;28;20568;-80
2023/04/21 12:13:34;;;;;;;91.97;47.60;;;;;;;15.50;nan;98883.59;5035283;28;20052;-80
2023/04/21 12:16:19;;;;;;;80.28;40.05;;;;;;;15.06;nan;98888.41;5033958;28;20072;-80
2023/04/21 12:19:03;;;;;;;68.93;37.47;;;;;;;15.57;nan;98892.25;5035746;28;20040;-81
2023/04/21 12:24:58;;;;;;;82.25;40.22;;;;;;;15.59;nan;98883.25;5036385;28;20068;-80
2023/04/21 12:27:58;;;;;;;79.05;41.15;;;;;;;14.92;nan;98883.31;5037166;28;20121;-81
2023/04/21 12:30:42;;;;;;;75.68;39.65;;;;;;;14.52;nan;98897.06;5042981;28;20083;-82
2023/04/21 12:33:26;;;;;;;78.72;41.42;;;;;;;14.89;nan;98888.25;5040122;28;20099;-81
2023/04/21 12:36:10;;;;;;;93.13;42.83;;;;;;;14.80;nan;98893.84;5035729;28;20159;-80
2023/04/21 12:38:54;;;;;;;95.43;45.03;;;;;;;14.96;nan;98899.53;5041740;28;20502;-81
2023/04/21 12:41:39;;;;;;;99.80;46.47;;;;;;;15.02;nan;98897.81;5038564;28;20044;-82
2023/04/21 12:44:24;;;;;;;88.22;41.15;;;;;;;15.41;nan;98903.50;5040191;28;20186;-82
2023/04/21 12:47:09;;;;;;;79.00;39.75;;;;;;;15.17;nan;98887.63;5037225;28;20820;-83
2023/04/21 12:49:52;;;;;;;72.10;38.17;;;;;;;15.03;nan;98883.56;5037393;28;21923;-81
2023/04/21 12:52:36;;;;;;;70.13;37.20;;;;;;;15.28;nan;98902.69;5036189;28;20047;-81
2023/04/21 12:55:21;;;;;;;80.25;40.67;;;;;;;15.50;nan;98885.44;5037043;28;20109;-80
2023/04/21 12:58:06;;;;;;;78.03;40.05;;;;;;;14.96;nan;98889.78;5038711;28;20398;-80